Du har inga inställningar för hoppväder.nu

Hoppväder.nu

Senast uppdaterat 02:15

UTC-tid

2018-01-17 kl. 01:15


Sol och måne

Solen går upp 8:28 och går ner 16:01 (beräknade cirkatider)
Nästa fullmåne blir om 14 dagar (2018-01-31)

METAR

ESMX (Växjö)
(25 minuter sedan)
ESMX 170050Z 13004KT 2200 -PL BKN003 00/00 Q0982=



ESMT (Halmstad)
(25 minuter sedan)
ESMT 170050Z AUTO VRB02KT 9999 FEW008/// OVC010/// 02/01 Q0983=



ESGJ (Jönköping)
(25 minuter sedan)
ESGJ 170050Z 14004KT 5000 -SN BKN004 00/00 Q0981=



ESMK (Everöd)
(25 minuter sedan)
ESMK 170050Z AUTO 24003KT 9999 BKN013/// 02/02 Q0984=






TAF

ESMX (Växjö)
(105 minuter sedan)
ESMX 162330Z 1700/1702 14006KT 8000 BKN002 TEMPO 1700/1702 1400 SN BR BKN005=



ESMT (Halmstad)
(135 minuter sedan)
ESMT 162300Z NIL=



ESGJ (Jönköping)
(86 minuter sedan)
ESGJ AAA 162349Z 1700/1703 15004KT 7000 -SN OVC006 PROB40 1700/1703 2000 RASN BR BKN003=



ESMK (Everöd)
(135 minuter sedan)
ESMK 162300Z NIL=





Kodnycklar till TAF och METAR






LHP

(Feringe är område K2c i Sydöstra delen)

Prognos är inte uppdaterad




Spotting

Hur fungerar spotthjälpen och Vindkartan?

Markvind är ca 0 m/s.



Vindkartan

Senast uppdaterad 02:15



All data kommer från LFV.se